Time;durP1;ratioP1;P1;durP2;ratioP2;P2;SDS_P1;SDS_P2;PMS_P1;PMS_P2;Temp;Humidity;BMP_temperature;BMP_pressure;BME280_temperature;BME280_humidity;BME280_pressure;Samples;Min_cycle;Max_cycle;Signal;HPM_P1;HPM_P2
2022/10/19 00:01:15;;;;;;;25.77;10.05;;;;;;;;;;5032896;28;20024;-66
2022/10/19 00:03:41;;;;;;;25.55;10.32;;;;;;;;;;5032464;28;20407;-66
2022/10/19 00:06:15;;;;;;;26.40;9.95;;;;;;;;;;5032862;28;20032;-65
2022/10/19 00:08:40;;;;;;;28.67;10.82;;;;;;;;;;5044260;28;20027;-65
2022/10/19 00:11:06;;;;;;;25.67;10.80;;;;;;;;;;5032862;28;20025;-62
2022/10/19 00:13:31;;;;;;;27.52;10.35;;;;;;;;;;5031231;28;20665;-65
2022/10/19 00:15:56;;;;;;;27.00;9.90;;;;;;;;;;5032582;28;20039;-64
2022/10/19 00:18:21;;;;;;;38.63;10.35;;;;;;;;;;5032064;28;20044;-65
2022/10/19 00:20:47;;;;;;;26.23;9.80;;;;;;;;;;5032719;28;20420;-65
2022/10/19 00:23:12;;;;;;;28.45;10.90;;;;;;;;;;5033545;28;20250;-65
2022/10/19 00:25:37;;;;;;;27.80;9.85;;;;;;;;;;5039994;28;20286;-65
2022/10/19 00:28:03;;;;;;;28.90;10.00;;;;;;;;;;5030653;28;20022;-63
2022/10/19 00:30:28;;;;;;;28.27;9.73;;;;;;;;;;5032498;28;20398;-66
2022/10/19 00:32:53;;;;;;;26.75;9.77;;;;;;;;;;5032139;28;20025;-64
2022/10/19 00:35:18;;;;;;;24.93;10.27;;;;;;;;;;5032201;28;20027;-65
2022/10/19 00:37:44;;;;;;;25.55;9.93;;;;;;;;;;5031302;28;20247;-65
2022/10/19 00:40:09;;;;;;;24.48;8.45;;;;;;;;;;5030518;28;20033;-66
2022/10/19 00:42:34;;;;;;;37.38;10.32;;;;;;;;;;5031250;28;20041;-64
2022/10/19 00:45:01;;;;;;;19.30;8.80;;;;;;;;;;5030727;28;20021;-66
2022/10/19 00:47:27;;;;;;;27.13;9.60;;;;;;;;;;5030934;28;20032;-65
2022/10/19 00:49:52;;;;;;;26.92;9.35;;;;;;;;;;5031807;28;20176;-64
2022/10/19 00:52:19;;;;;;;19.20;8.18;;;;;;;;;;5013344;28;20537;-65
2022/10/19 00:54:46;;;;;;;23.52;9.05;;;;;;;;;;5031554;28;20379;-63
2022/10/19 00:57:11;;;;;;;23.55;8.23;;;;;;;;;;5030802;28;20116;-66
2022/10/19 00:59:37;;;;;;;21.85;7.97;;;;;;;;;;5031193;28;20047;-65
2022/10/19 01:02:04;;;;;;;21.75;8.60;;;;;;;;;;5030959;28;20033;-65
2022/10/19 01:04:31;;;;;;;26.27;8.95;;;;;;;;;;5013486;28;20076;-65
2022/10/19 01:06:57;;;;;;;21.80;8.07;;;;;;;;;;5032481;28;20484;-66
2022/10/19 01:09:22;;;;;;;26.15;8.27;;;;;;;;;;5013298;28;20025;-64
2022/10/19 01:11:47;;;;;;;24.08;7.53;;;;;;;;;;5030627;28;20036;-65
2022/10/19 01:14:13;;;;;;;15.80;7.57;;;;;;;;;;5030764;28;20452;-63
2022/10/19 01:16:57;;;;;;;14.95;8.10;;;;;;;;;;5012576;28;20257;-66
2022/10/19 01:19:41;;;;;;;24.55;7.95;;;;;;;;;;5012704;28;20022;-62
2022/10/19 01:22:18;;;;;;;29.73;7.68;;;;;;;;;;5031066;28;20017;-64
2022/10/19 01:24:49;;;;;;;21.75;7.82;;;;;;;;;;5030511;28;20022;-65
2022/10/19 01:27:34;;;;;;;25.35;8.35;;;;;;;;;;5012442;28;20013;-65
2022/10/19 01:30:01;;;;;;;25.98;7.85;;;;;;;;;;4997698;28;20056;-64
2022/10/19 01:32:29;;;;;;;17.00;7.68;;;;;;;;;;5030411;28;20104;-65
2022/10/19 01:35:12;;;;;;;20.67;8.03;;;;;;;;;;5030366;28;20100;-63
2022/10/19 01:37:41;;;;;;;22.35;8.23;;;;;;;;;;5029862;28;20079;-64
2022/10/19 01:40:09;;;;;;;21.15;8.55;;;;;;;;;;5030243;28;20044;-64
2022/10/19 01:42:41;;;;;;;21.15;9.77;;;;;;;;;;5029768;28;20518;-64
2022/10/19 01:45:09;;;;;;;30.27;8.05;;;;;;;;;;5023658;28;20570;-65
2022/10/19 01:47:40;;;;;;;26.95;8.27;;;;;;;;;;5027160;28;20029;-66
2022/10/19 01:50:11;;;;;;;25.60;8.55;;;;;;;;;;5030274;28;20017;-65
2022/10/19 01:52:39;;;;;;;18.17;7.65;;;;;;;;;;5031325;28;20104;-63
2022/10/19 01:55:04;;;;;;;25.27;8.70;;;;;;;;;;5030568;28;20622;-66
2022/10/19 01:57:35;;;;;;;17.25;6.82;;;;;;;;;;5029838;28;20010;-65
2022/10/19 02:00:06;;;;;;;14.40;7.28;;;;;;;;;;5029797;28;20195;-63
2022/10/19 02:02:33;;;;;;;31.30;8.65;;;;;;;;;;5030025;28;20017;-63
2022/10/19 02:04:59;;;;;;;26.17;7.65;;;;;;;;;;5031194;28;20393;-64
2022/10/19 02:07:24;;;;;;;18.55;6.85;;;;;;;;;;5032577;28;20025;-65
2022/10/19 02:09:50;;;;;;;19.52;7.35;;;;;;;;;;5029479;28;20025;-65
2022/10/19 02:12:15;;;;;;;21.65;7.00;;;;;;;;;;5029691;28;20064;-65
2022/10/19 02:14:46;;;;;;;23.52;6.80;;;;;;;;;;5029437;28;20051;-64
2022/10/19 02:17:13;;;;;;;25.25;7.65;;;;;;;;;;5029503;28;20021;-65
2022/10/19 02:19:39;;;;;;;17.08;7.25;;;;;;;;;;5015446;28;20017;-65
2022/10/19 02:22:04;;;;;;;27.08;7.35;;;;;;;;;;5029857;28;20025;-66
2022/10/19 02:24:30;;;;;;;20.00;6.93;;;;;;;;;;5029334;28;20025;-65
2022/10/19 02:26:55;;;;;;;15.98;6.45;;;;;;;;;;5029082;28;20025;-65
2022/10/19 02:29:21;;;;;;;27.90;7.68;;;;;;;;;;5029155;28;20021;-64
2022/10/19 02:31:46;;;;;;;21.00;8.65;;;;;;;;;;5029727;28;20040;-65
2022/10/19 02:34:11;;;;;;;17.30;7.53;;;;;;;;;;5026275;28;20017;-65
2022/10/19 02:36:37;;;;;;;24.10;7.90;;;;;;;;;;5026277;28;20035;-66
2022/10/19 02:39:02;;;;;;;22.02;7.88;;;;;;;;;;5031955;28;20104;-66
2022/10/19 02:41:33;;;;;;;16.42;7.78;;;;;;;;;;5029997;28;20096;-65
2022/10/19 02:44:02;;;;;;;17.13;7.90;;;;;;;;;;5033343;28;20025;-64
2022/10/19 02:46:35;;;;;;;24.70;8.05;;;;;;;;;;5028906;28;20021;-65
2022/10/19 02:49:02;;;;;;;27.05;7.97;;;;;;;;;;5016330;28;20033;-66
2022/10/19 02:51:29;;;;;;;18.50;8.60;;;;;;;;;;5028793;28;20025;-65
2022/10/19 02:53:55;;;;;;;18.63;7.93;;;;;;;;;;5028738;28;20025;-65
2022/10/19 02:56:20;;;;;;;22.17;6.82;;;;;;;;;;5028613;28;20522;-63
2022/10/19 02:58:45;;;;;;;23.08;8.10;;;;;;;;;;5029386;28;20021;-65
2022/10/19 03:01:10;;;;;;;19.83;8.43;;;;;;;;;;5029012;28;20022;-63
2022/10/19 03:03:35;;;;;;;21.30;7.70;;;;;;;;;;5029398;28;20503;-66
2022/10/19 03:06:01;;;;;;;28.23;8.38;;;;;;;;;;5029338;28;20036;-65
2022/10/19 03:08:26;;;;;;;19.58;7.53;;;;;;;;;;5030437;28;20029;-67
2022/10/19 03:10:51;;;;;;;22.67;8.65;;;;;;;;;;5029176;28;20029;-65
2022/10/19 03:13:16;;;;;;;22.40;8.55;;;;;;;;;;5029060;28;20580;-66
2022/10/19 03:15:41;;;;;;;40.38;9.38;;;;;;;;;;5029867;28;20018;-65
2022/10/19 03:18:06;;;;;;;24.52;8.88;;;;;;;;;;5029628;28;20050;-66
2022/10/19 03:20:32;;;;;;;20.53;7.63;;;;;;;;;;5029705;28;20017;-66
2022/10/19 03:22:57;;;;;;;22.52;7.63;;;;;;;;;;5029663;28;20348;-66
2022/10/19 03:25:22;;;;;;;22.48;8.65;;;;;;;;;;5029171;28;20028;-67
2022/10/19 03:27:47;;;;;;;20.95;8.05;;;;;;;;;;5031988;28;20018;-65
2022/10/19 03:30:13;;;;;;;21.30;7.60;;;;;;;;;;5025482;28;20467;-66
2022/10/19 03:32:38;;;;;;;28.98;8.52;;;;;;;;;;5030071;28;20471;-63
2022/10/19 03:35:03;;;;;;;27.02;7.45;;;;;;;;;;5030094;28;20037;-65
2022/10/19 03:37:28;;;;;;;24.08;8.00;;;;;;;;;;5030880;28;20087;-65
2022/10/19 03:39:54;;;;;;;16.20;6.38;;;;;;;;;;5031007;28;20410;-65
2022/10/19 03:42:19;;;;;;;26.05;8.07;;;;;;;;;;5030547;28;20079;-64
2022/10/19 03:44:44;;;;;;;30.65;6.55;;;;;;;;;;5029732;28;20025;-66
2022/10/19 03:47:09;;;;;;;18.98;6.18;;;;;;;;;;5028493;28;20569;-64
2022/10/19 03:49:35;;;;;;;18.50;6.50;;;;;;;;;;5008387;28;20060;-66
2022/10/19 03:52:00;;;;;;;22.13;6.25;;;;;;;;;;5021746;28;20022;-64
2022/10/19 03:54:25;;;;;;;24.42;6.13;;;;;;;;;;5028643;28;20387;-65
2022/10/19 03:56:50;;;;;;;17.30;6.38;;;;;;;;;;5028468;28;20017;-64
2022/10/19 03:59:15;;;;;;;17.23;6.22;;;;;;;;;;5029449;28;20028;-65
2022/10/19 04:01:42;;;;;;;31.10;7.75;;;;;;;;;;5028496;28;20025;-64
2022/10/19 04:04:12;;;;;;;19.30;6.13;;;;;;;;;;5014927;28;20109;-66
2022/10/19 04:06:39;;;;;;;26.13;6.45;;;;;;;;;;5030414;28;20029;-65
2022/10/19 04:09:04;;;;;;;22.58;6.25;;;;;;;;;;5032454;28;20437;-67
2022/10/19 04:11:30;;;;;;;17.85;6.75;;;;;;;;;;5045098;28;20506;-66
2022/10/19 04:13:56;;;;;;;21.05;6.57;;;;;;;;;;5024766;28;20017;-67
2022/10/19 04:16:21;;;;;;;21.83;6.53;;;;;;;;;;5032106;28;20028;-65
2022/10/19 04:18:47;;;;;;;22.33;6.85;;;;;;;;;;5032621;28;20056;-65
2022/10/19 04:21:18;;;;;;;22.88;7.10;;;;;;;;;;5029585;28;20013;-67
2022/10/19 04:23:43;;;;;;;23.50;6.32;;;;;;;;;;5030507;28;20021;-65
2022/10/19 04:26:08;;;;;;;26.98;7.18;;;;;;;;;;5030284;28;20442;-65
2022/10/19 04:28:34;;;;;;;18.23;6.88;;;;;;;;;;5019624;28;20057;-65
2022/10/19 04:31:05;;;;;;;19.38;6.55;;;;;;;;;;5023593;28;20025;-64
2022/10/19 04:33:31;;;;;;;20.05;6.43;;;;;;;;;;5040429;28;20048;-63
2022/10/19 04:35:57;;;;;;;19.85;6.10;;;;;;;;;;5033055;28;20052;-65
2022/10/19 04:38:22;;;;;;;25.92;6.47;;;;;;;;;;5014669;28;20490;-64
2022/10/19 04:40:48;;;;;;;19.27;5.78;;;;;;;;;;5031407;28;20061;-64
2022/10/19 04:43:13;;;;;;;18.20;5.88;;;;;;;;;;5028264;28;20030;-65
2022/10/19 04:45:38;;;;;;;15.88;5.82;;;;;;;;;;5031221;28;20075;-64
2022/10/19 04:48:04;;;;;;;26.70;6.80;;;;;;;;;;5042712;28;20614;-64
2022/10/19 04:50:29;;;;;;;22.83;6.22;;;;;;;;;;5015576;28;20018;-65
2022/10/19 04:52:54;;;;;;;29.10;6.78;;;;;;;;;;5030954;28;20032;-63
2022/10/19 04:55:20;;;;;;;21.63;5.72;;;;;;;;;;5029742;28;20037;-63
2022/10/19 04:57:45;;;;;;;17.63;6.30;;;;;;;;;;5017221;28;20051;-65
2022/10/19 05:00:10;;;;;;;29.98;6.35;;;;;;;;;;5031861;28;20032;-64
2022/10/19 05:02:35;;;;;;;18.15;5.68;;;;;;;;;;5030938;28;20152;-64
2022/10/19 05:05:01;;;;;;;23.48;5.55;;;;;;;;;;5031607;28;20036;-66
2022/10/19 05:07:26;;;;;;;16.63;5.75;;;;;;;;;;5038769;28;20039;-65
2022/10/19 05:09:51;;;;;;;14.65;5.65;;;;;;;;;;5028438;28;20029;-65
2022/10/19 05:12:16;;;;;;;29.58;6.70;;;;;;;;;;5030831;28;20438;-64
2022/10/19 05:14:41;;;;;;;20.23;6.22;;;;;;;;;;5031544;28;20021;-66
2022/10/19 05:17:07;;;;;;;28.20;6.68;;;;;;;;;;5031043;28;20021;-64
2022/10/19 05:19:32;;;;;;;16.77;6.53;;;;;;;;;;5031175;28;20010;-66
2022/10/19 05:21:57;;;;;;;19.48;5.95;;;;;;;;;;5030679;28;20479;-65
2022/10/19 05:24:22;;;;;;;16.10;6.03;;;;;;;;;;5030849;28;20057;-66
2022/10/19 05:26:47;;;;;;;24.60;6.77;;;;;;;;;;5028412;28;20036;-66
2022/10/19 05:29:13;;;;;;;21.33;7.88;;;;;;;;;;5021936;28;20625;-65
2022/10/19 05:31:38;;;;;;;19.98;6.13;;;;;;;;;;5021426;28;20029;-66
2022/10/19 05:34:04;;;;;;;19.13;5.55;;;;;;;;;;5011181;28;20029;-65
2022/10/19 05:36:33;;;;;;;20.95;5.82;;;;;;;;;;5029826;28;20009;-65
2022/10/19 05:39:00;;;;;;;20.60;6.00;;;;;;;;;;5015974;28;20584;-67
2022/10/19 05:41:25;;;;;;;31.08;6.30;;;;;;;;;;5022990;28;20491;-66
2022/10/19 05:43:52;;;;;;;18.05;6.05;;;;;;;;;;5025969;28;20064;-65
2022/10/19 05:46:17;;;;;;;19.33;6.50;;;;;;;;;;5033670;28;20103;-66
2022/10/19 05:48:43;;;;;;;17.35;6.47;;;;;;;;;;5019765;28;20165;-66
2022/10/19 05:51:10;;;;;;;21.75;5.85;;;;;;;;;;5031141;28;20101;-66
2022/10/19 05:53:35;;;;;;;21.60;5.75;;;;;;;;;;5031256;28;20431;-67
2022/10/19 05:56:02;;;;;;;13.50;6.03;;;;;;;;;;5030892;28;20072;-67
2022/10/19 05:58:28;;;;;;;18.70;5.97;;;;;;;;;;5012986;28;20026;-66
2022/10/19 06:00:55;;;;;;;23.08;5.95;;;;;;;;;;5029506;28;20024;-67
2022/10/19 06:03:20;;;;;;;19.42;5.78;;;;;;;;;;5029397;28;20021;-68
2022/10/19 06:05:46;;;;;;;28.52;6.25;;;;;;;;;;5029878;28;20561;-66
2022/10/19 06:08:11;;;;;;;13.95;5.13;;;;;;;;;;5043436;28;20013;-68
2022/10/19 06:10:36;;;;;;;21.60;6.22;;;;;;;;;;5037586;28;20160;-66
2022/10/19 06:13:02;;;;;;;18.85;4.85;;;;;;;;;;5012078;28;20048;-68
2022/10/19 06:15:27;;;;;;;16.58;5.57;;;;;;;;;;5039141;28;20079;-66
2022/10/19 06:17:52;;;;;;;24.48;5.53;;;;;;;;;;5030850;28;20475;-64
2022/10/19 06:20:17;;;;;;;18.33;5.28;;;;;;;;;;5029875;28;20097;-65
2022/10/19 06:22:42;;;;;;;36.95;5.93;;;;;;;;;;5029326;28;20017;-65
2022/10/19 06:25:08;;;;;;;21.10;6.07;;;;;;;;;;5029616;28;20009;-65
2022/10/19 06:27:33;;;;;;;29.95;5.82;;;;;;;;;;5031048;28;20021;-65
2022/10/19 06:29:58;;;;;;;27.80;6.15;;;;;;;;;;5019628;28;20473;-67
2022/10/19 06:32:23;;;;;;;20.15;5.53;;;;;;;;;;5033572;28;20028;-68
2022/10/19 06:34:49;;;;;;;19.02;5.80;;;;;;;;;;5021768;28;20064;-66
2022/10/19 06:37:14;;;;;;;15.48;4.88;;;;;;;;;;5015769;28;20017;-66
2022/10/19 06:39:39;;;;;;;20.13;5.22;;;;;;;;;;5029754;28;20105;-66
2022/10/19 06:42:04;;;;;;;21.37;6.30;;;;;;;;;;5031446;28;20106;-66
2022/10/19 06:44:29;;;;;;;16.42;5.32;;;;;;;;;;5028130;28;20586;-67
2022/10/19 06:46:55;;;;;;;20.27;6.05;;;;;;;;;;5029757;28;20036;-65
2022/10/19 06:49:20;;;;;;;28.08;5.30;;;;;;;;;;5031280;28;20689;-65
2022/10/19 06:51:45;;;;;;;15.82;5.18;;;;;;;;;;5012847;28;20091;-67
2022/10/19 06:54:10;;;;;;;21.38;4.78;;;;;;;;;;5033815;28;20533;-65
2022/10/19 06:56:35;;;;;;;25.48;6.30;;;;;;;;;;5030066;28;20061;-66
2022/10/19 06:59:01;;;;;;;15.60;4.95;;;;;;;;;;5030072;28;20386;-67
2022/10/19 07:01:26;;;;;;;19.48;5.28;;;;;;;;;;5032242;28;20033;-67
2022/10/19 07:03:51;;;;;;;11.98;5.05;;;;;;;;;;5031150;28;20060;-66
2022/10/19 07:06:17;;;;;;;12.85;5.10;;;;;;;;;;5025742;28;20183;-65
2022/10/19 07:08:43;;;;;;;18.67;5.30;;;;;;;;;;5031180;28;20024;-67
2022/10/19 07:11:09;;;;;;;14.48;4.72;;;;;;;;;;5011678;28;20426;-66
2022/10/19 07:13:34;;;;;;;18.95;5.63;;;;;;;;;;5032500;28;20047;-67
2022/10/19 07:16:02;;;;;;;13.10;4.47;;;;;;;;;;5032988;28;20047;-67
2022/10/19 07:18:27;;;;;;;20.80;4.75;;;;;;;;;;5029108;28;20063;-67
2022/10/19 07:20:57;;;;;;;25.77;5.43;;;;;;;;;;5029321;28;20029;-67
2022/10/19 07:23:22;;;;;;;26.70;4.65;;;;;;;;;;5030001;28;20526;-66
2022/10/19 07:25:47;;;;;;;19.13;4.63;;;;;;;;;;5031218;28;20104;-66
2022/10/19 07:28:13;;;;;;;16.33;5.20;;;;;;;;;;5027849;28;20394;-67
2022/10/19 07:30:38;;;;;;;21.55;4.50;;;;;;;;;;5027701;28;20025;-68
2022/10/19 07:33:03;;;;;;;17.23;4.90;;;;;;;;;;5032166;28;20051;-65
2022/10/19 07:35:29;;;;;;;23.67;5.60;;;;;;;;;;5025549;28;20104;-68
2022/10/19 07:37:54;;;;;;;22.60;4.60;;;;;;;;;;5032348;28;20426;-66
2022/10/19 07:40:19;;;;;;;27.80;5.43;;;;;;;;;;5032751;28;20060;-66
2022/10/19 07:42:44;;;;;;;20.52;5.82;;;;;;;;;;5014658;28;20024;-67
2022/10/19 07:45:09;;;;;;;17.33;4.22;;;;;;;;;;5033988;28;20025;-65
2022/10/19 07:47:35;;;;;;;17.55;4.65;;;;;;;;;;5033632;28;20380;-66
2022/10/19 07:50:00;;;;;;;21.17;5.32;;;;;;;;;;5032229;28;20390;-66
2022/10/19 07:52:25;;;;;;;13.57;4.10;;;;;;;;;;5031264;28;20064;-67
2022/10/19 07:54:51;;;;;;;19.40;4.97;;;;;;;;;;5031942;28;20025;-66
2022/10/19 07:57:16;;;;;;;20.27;4.82;;;;;;;;;;5010574;28;20068;-68
2022/10/19 07:59:42;;;;;;;23.58;4.88;;;;;;;;;;5030321;28;20120;-67
2022/10/19 08:02:13;;;;;;;11.60;4.10;;;;;;;;;;5032071;28;20027;-67
2022/10/19 08:04:38;;;;;;;12.43;4.30;;;;;;;;;;5035416;28;20016;-67
2022/10/19 08:07:03;;;;;;;23.98;4.65;;;;;;;;;;5031184;28;20104;-68
2022/10/19 08:09:29;;;;;;;22.25;4.97;;;;;;;;;;5032130;28;20033;-68
2022/10/19 08:11:54;;;;;;;15.98;4.75;;;;;;;;;;5013008;28;20028;-67
2022/10/19 08:14:19;;;;;;;15.90;4.57;;;;;;;;;;5039589;28;20086;-67
2022/10/19 08:16:44;;;;;;;16.67;4.60;;;;;;;;;;5028604;28;20071;-65
2022/10/19 08:19:11;;;;;;;8.75;3.95;;;;;;;;;;5033462;28;20029;-67
2022/10/19 08:21:37;;;;;;;19.15;4.55;;;;;;;;;;5035204;28;20807;-67
2022/10/19 08:24:02;;;;;;;18.25;4.82;;;;;;;;;;5039489;28;20135;-69
2022/10/19 08:26:28;;;;;;;19.48;5.10;;;;;;;;;;5034555;28;20064;-66
2022/10/19 08:28:57;;;;;;;23.88;5.90;;;;;;;;;;5034520;28;20104;-65
2022/10/19 08:31:23;;;;;;;14.13;4.32;;;;;;;;;;5030662;28;20021;-65
2022/10/19 08:33:48;;;;;;;19.95;5.40;;;;;;;;;;5015859;28;20032;-67
2022/10/19 08:36:14;;;;;;;20.27;4.82;;;;;;;;;;5026488;28;20127;-65
2022/10/19 08:38:40;;;;;;;14.38;5.07;;;;;;;;;;5030663;28;20018;-68
2022/10/19 08:41:11;;;;;;;19.20;4.88;;;;;;;;;;5033632;28;20515;-67
2022/10/19 08:43:40;;;;;;;19.17;5.60;;;;;;;;;;5030311;28;20025;-66
2022/10/19 08:46:06;;;;;;;17.23;4.93;;;;;;;;;;5033796;28;20021;-68
2022/10/19 08:48:35;;;;;;;19.23;5.30;;;;;;;;;;5034475;28;20027;-68
2022/10/19 08:51:01;;;;;;;9.98;3.63;;;;;;;;;;5034377;28;20021;-67
2022/10/19 08:53:34;;;;;;;21.73;4.35;;;;;;;;;;5036325;28;20033;-67
2022/10/19 08:56:05;;;;;;;19.40;4.57;;;;;;;;;;5032828;28;20108;-67
2022/10/19 08:58:42;;;;;;;13.43;4.03;;;;;;;;;;5031603;28;20033;-68
2022/10/19 09:01:07;;;;;;;16.98;3.85;;;;;;;;;;5031762;28;20029;-66
2022/10/19 09:03:53;;;;;;;15.27;3.93;;;;;;;;;;5033188;28;20025;-67
2022/10/19 09:06:27;;;;;;;15.20;4.15;;;;;;;;;;5031616;28;20262;-68
2022/10/19 09:08:54;;;;;;;19.02;4.75;;;;;;;;;;5032312;28;20056;-68
2022/10/19 09:11:22;;;;;;;28.98;5.13;;;;;;;;;;5034474;28;20028;-67
2022/10/19 09:13:48;;;;;;;25.75;5.05;;;;;;;;;;5034543;28;20025;-66
2022/10/19 09:16:15;;;;;;;17.15;4.35;;;;;;;;;;5033036;28;20022;-68
2022/10/19 09:18:41;;;;;;;13.10;3.95;;;;;;;;;;5037992;28;20021;-68
2022/10/19 09:21:11;;;;;;;12.57;3.47;;;;;;;;;;5032585;28;20009;-67
2022/10/19 09:23:48;;;;;;;21.00;4.55;;;;;;;;;;5030726;28;20022;-67
2022/10/19 09:26:17;;;;;;;17.67;4.20;;;;;;;;;;5028694;28;20021;-67
2022/10/19 09:28:42;;;;;;;10.20;3.70;;;;;;;;;;5036383;28;20081;-66
2022/10/19 09:31:13;;;;;;;15.70;3.97;;;;;;;;;;5032548;28;20022;-66
2022/10/19 09:33:39;;;;;;;14.07;4.97;;;;;;;;;;5031894;28;20044;-66
2022/10/19 09:36:05;;;;;;;10.90;3.70;;;;;;;;;;5032423;28;20045;-67
2022/10/19 09:38:31;;;;;;;14.57;4.95;;;;;;;;;;5036911;28;20017;-65
2022/10/19 09:40:57;;;;;;;12.43;3.42;;;;;;;;;;5013434;28;20063;-67
2022/10/19 09:43:24;;;;;;;15.48;3.40;;;;;;;;;;5032028;28;20033;-68
2022/10/19 09:46:03;;;;;;;27.58;5.28;;;;;;;;;;5029739;28;20067;-68
2022/10/19 09:48:38;;;;;;;10.63;3.72;;;;;;;;;;5034003;28;20029;-68
2022/10/19 09:51:10;;;;;;;12.75;2.70;;;;;;;;;;5030593;28;20025;-68
2022/10/19 09:53:35;;;;;;;14.57;3.65;;;;;;;;;;5032974;28;20037;-67
2022/10/19 09:56:07;;;;;;;16.95;2.78;;;;;;;;;;5031278;28;20131;-68
2022/10/19 09:58:33;;;;;;;13.32;2.70;;;;;;;;;;5032745;28;20116;-65
2022/10/19 10:00:58;;;;;;;11.88;3.17;;;;;;;;;;5035334;28;20111;-67
2022/10/19 10:03:29;;;;;;;14.55;2.58;;;;;;;;;;5031723;28;20150;-66
2022/10/19 10:05:56;;;;;;;8.18;1.65;;;;;;;;;;5030319;28;20115;-69
2022/10/19 10:08:24;;;;;;;9.88;1.88;;;;;;;;;;5031956;28;20495;-68
2022/10/19 10:10:56;;;;;;;16.48;2.45;;;;;;;;;;5030349;28;20030;-66
2022/10/19 10:13:23;;;;;;;12.05;2.17;;;;;;;;;;5012565;28;20033;-67
2022/10/19 10:15:49;;;;;;;6.63;1.60;;;;;;;;;;5032961;28;20084;-68
2022/10/19 10:18:16;;;;;;;11.85;2.58;;;;;;;;;;5026546;28;20369;-68
2022/10/19 10:21:01;;;;;;;10.63;2.00;;;;;;;;;;5036023;28;20023;-67
2022/10/19 10:23:30;;;;;;;11.75;1.75;;;;;;;;;;5019729;28;20036;-66
2022/10/19 10:25:56;;;;;;;16.60;3.25;;;;;;;;;;5028465;28;20555;-68
2022/10/19 10:28:22;;;;;;;18.15;1.90;;;;;;;;;;5029174;28;20532;-66
2022/10/19 10:30:52;;;;;;;9.57;2.33;;;;;;;;;;5032829;28;20021;-66
2022/10/19 10:33:25;;;;;;;8.35;2.00;;;;;;;;;;5013953;28;20047;-67
2022/10/19 10:35:52;;;;;;;6.57;1.90;;;;;;;;;;5026175;28;20661;-67
2022/10/19 10:38:22;;;;;;;11.48;2.40;;;;;;;;;;5025959;28;20021;-69
2022/10/19 10:40:51;;;;;;;7.03;1.95;;;;;;;;;;5018021;28;20048;-68
2022/10/19 10:43:17;;;;;;;11.38;2.47;;;;;;;;;;5012737;28;20022;-67
2022/10/19 10:45:45;;;;;;;6.97;2.40;;;;;;;;;;5008703;28;20125;-68
2022/10/19 10:48:15;;;;;;;8.53;2.23;;;;;;;;;;5026939;28;20044;-67
2022/10/19 10:50:40;;;;;;;8.43;2.20;;;;;;;;;;5025628;28;20026;-68
2022/10/19 10:53:25;;;;;;;9.73;2.10;;;;;;;;;;5026172;28;20754;-68
2022/10/19 10:55:55;;;;;;;19.67;2.42;;;;;;;;;;5028797;28;20033;-68
2022/10/19 10:58:30;;;;;;;10.93;2.95;;;;;;;;;;5027353;28;20718;-68
2022/10/19 11:00:57;;;;;;;8.18;2.33;;;;;;;;;;5007569;28;20022;-67
2022/10/19 11:03:24;;;;;;;7.93;1.88;;;;;;;;;;5034635;28;20021;-67
2022/10/19 11:05:57;;;;;;;8.95;1.80;;;;;;;;;;5026639;28;20044;-66
2022/10/19 11:08:41;;;;;;;9.38;1.92;;;;;;;;;;5034932;28;21206;-67
2022/10/19 11:11:09;;;;;;;11.55;1.80;;;;;;;;;;5033729;28;20109;-68
2022/10/19 11:13:44;;;;;;;8.60;1.67;;;;;;;;;;5019620;28;20035;-66
2022/10/19 11:16:16;;;;;;;9.13;1.67;;;;;;;;;;5030051;28;20094;-67
2022/10/19 11:18:47;;;;;;;6.65;1.20;;;;;;;;;;5031981;28;20367;-66
2022/10/19 11:21:29;;;;;;;12.32;2.05;;;;;;;;;;5037295;28;20433;-66
2022/10/19 11:24:04;;;;;;;6.88;1.40;;;;;;;;;;5034020;28;20104;-67
2022/10/19 11:26:51;;;;;;;10.85;1.30;;;;;;;;;;5031330;28;20548;-65
2022/10/19 11:29:26;;;;;;;8.25;1.33;;;;;;;;;;5019187;28;20020;-66
2022/10/19 11:31:53;;;;;;;9.05;1.38;;;;;;;;;;5039329;28;20083;-65
2022/10/19 11:34:36;;;;;;;10.00;1.50;;;;;;;;;;5033025;28;20041;-68
2022/10/19 11:37:13;;;;;;;7.90;1.48;;;;;;;;;;5031553;28;20021;-65
2022/10/19 11:39:47;;;;;;;13.48;1.75;;;;;;;;;;5032088;28;20014;-66
2022/10/19 11:42:15;;;;;;;8.70;1.17;;;;;;;;;;5030084;28;20033;-67
2022/10/19 11:44:40;;;;;;;8.57;1.30;;;;;;;;;;5034609;28;20525;-66
2022/10/19 11:47:05;;;;;;;5.57;1.20;;;;;;;;;;5036486;28;20025;-67
2022/10/19 11:49:41;;;;;;;7.85;1.38;;;;;;;;;;5020037;28;20272;-67
2022/10/19 11:52:16;;;;;;;15.38;1.38;;;;;;;;;;5037956;28;20021;-66
2022/10/19 11:55:11;;;;;;;8.07;1.30;;;;;;;;;;5033601;28;20056;-65
2022/10/19 11:57:41;;;;;;;5.32;1.20;;;;;;;;;;5017767;28;20080;-66
2022/10/19 12:00:11;;;;;;;8.63;1.50;;;;;;;;;;5037177;28;20017;-67
2022/10/19 12:02:55;;;;;;;3.00;1.13;;;;;;;;;;5036308;28;20025;-66
2022/10/19 12:05:25;;;;;;;10.57;1.77;;;;;;;;;;5031917;28;20033;-66
2022/10/19 12:07:54;;;;;;;7.93;1.48;;;;;;;;;;5033847;28;20028;-65
2022/10/19 12:10:38;;;;;;;5.43;1.50;;;;;;;;;;5034487;28;20024;-65
2022/10/19 12:13:09;;;;;;;11.48;1.50;;;;;;;;;;5033195;28;20197;-67
2022/10/19 12:15:37;;;;;;;9.50;2.33;;;;;;;;;;5030899;28;20025;-69
2022/10/19 12:18:10;;;;;;;22.60;3.00;;;;;;;;;;5034264;28;20083;-65
2022/10/19 12:20:41;;;;;;;20.25;2.90;;;;;;;;;;5034212;28;20017;-66
2022/10/19 12:23:20;;;;;;;10.50;1.55;;;;;;;;;;5034850;28;20024;-65
2022/10/19 12:25:45;;;;;;;;;;;;;;;;;;5033512;28;20013;-66
2022/10/19 12:28:17;;;;;;;5.85;1.35;;;;;;;;;;5017534;28;19975;-67
2022/10/19 12:30:43;;;;;;;8.25;1.58;;;;;;;;;;5031586;28;20033;-65
2022/10/19 12:33:16;;;;;;;7.40;1.60;;;;;;;;;;5036597;28;20029;-66
2022/10/19 12:35:44;;;;;;;5.18;0.95;;;;;;;;;;5026808;28;20045;-67
2022/10/19 12:38:13;;;;;;;6.40;1.07;;;;;;;;;;5029212;28;20020;-66
2022/10/19 12:40:42;;;;;;;13.65;1.52;;;;;;;;;;5031276;28;20025;-65
2022/10/19 12:43:10;;;;;;;6.90;0.88;;;;;;;;;;5029932;28;20033;-66
2022/10/19 12:45:51;;;;;;;7.10;1.13;;;;;;;;;;5032194;28;20479;-66
2022/10/19 12:48:17;;;;;;;6.38;1.25;;;;;;;;;;5033836;28;20270;-65
2022/10/19 12:50:49;;;;;;;7.78;1.08;;;;;;;;;;5034158;28;20487;-65
2022/10/19 12:53:26;;;;;;;14.88;1.63;;;;;;;;;;5033794;28;20621;-65
2022/10/19 12:56:09;;;;;;;12.15;1.17;;;;;;;;;;5030783;28;20021;-66
2022/10/19 12:58:38;;;;;;;7.57;1.05;;;;;;;;;;5036549;28;20074;-64
2022/10/19 13:01:04;;;;;;;8.55;1.30;;;;;;;;;;5030915;28;20042;-66
2022/10/19 13:03:31;;;;;;;5.97;1.25;;;;;;;;;;5033428;28;20037;-66
2022/10/19 13:05:58;;;;;;;19.52;4.47;;;;;;;;;;5033892;28;20537;-66
2022/10/19 13:08:30;;;;;;;5.40;1.38;;;;;;;;;;5031027;28;20363;-65
2022/10/19 13:11:06;;;;;;;6.65;1.42;;;;;;;;;;5033662;28;20033;-65
2022/10/19 13:13:50;;;;;;;5.60;1.05;;;;;;;;;;5033284;28;20424;-67
2022/10/19 13:16:28;;;;;;;4.63;1.30;;;;;;;;;;5029440;28;20385;-65
2022/10/19 13:19:12;;;;;;;5.40;2.00;;;;;;;;;;5035036;28;20063;-65
2022/10/19 13:21:43;;;;;;;7.93;1.63;;;;;;;;;;5033647;28;20025;-67
2022/10/19 13:24:23;;;;;;;4.72;1.02;;;;;;;;;;5033772;28;20021;-66
2022/10/19 13:27:08;;;;;;;7.45;1.33;;;;;;;;;;5029546;28;20371;-67
2022/10/19 13:29:40;;;;;;;5.57;0.90;;;;;;;;;;5007464;28;20037;-66
2022/10/19 13:32:24;;;;;;;9.73;1.65;;;;;;;;;;5028146;28;20029;-66
2022/10/19 13:34:49;;;;;;;6.53;1.40;;;;;;;;;;5033597;28;20116;-65
2022/10/19 13:37:16;;;;;;;6.35;1.05;;;;;;;;;;5032444;28;20032;-65
2022/10/19 13:39:41;;;;;;;3.63;1.60;;;;;;;;;;5032616;28;20024;-65
2022/10/19 13:42:24;;;;;;;6.28;1.13;;;;;;;;;;5030379;28;20030;-69
2022/10/19 13:44:51;;;;;;;13.70;1.40;;;;;;;;;;5031685;28;20116;-65
2022/10/19 13:47:16;;;;;;;6.95;1.17;;;;;;;;;;5012778;28;21305;-66
2022/10/19 13:49:51;;;;;;;9.05;1.88;;;;;;;;;;5033409;28;20029;-67
2022/10/19 13:52:35;;;;;;;17.15;1.77;;;;;;;;;;5034337;28;20578;-66
2022/10/19 13:55:12;;;;;;;8.27;1.05;;;;;;;;;;5025882;28;20033;-64
2022/10/19 13:57:46;;;;;;;7.18;1.08;;;;;;;;;;5022117;28;20021;-65
2022/10/19 14:00:24;;;;;;;5.53;1.27;;;;;;;;;;5028339;28;20101;-65
2022/10/19 14:02:52;;;;;;;8.40;0.90;;;;;;;;;;5004037;28;20120;-67
2022/10/19 14:05:17;;;;;;;9.30;1.35;;;;;;;;;;5022569;28;20254;-66
2022/10/19 14:07:48;;;;;;;4.47;1.40;;;;;;;;;;5022376;28;20022;-66
2022/10/19 14:10:18;;;;;;;9.85;1.40;;;;;;;;;;5030863;28;20254;-65
2022/10/19 14:12:45;;;;;;;9.25;1.13;;;;;;;;;;5029629;28;20022;-65
2022/10/19 14:15:30;;;;;;;4.75;1.27;;;;;;;;;;5032866;28;20449;-66
2022/10/19 14:17:56;;;;;;;10.10;1.52;;;;;;;;;;5009286;28;20128;-66
2022/10/19 14:20:32;;;;;;;7.68;1.30;;;;;;;;;;5027807;28;20100;-65
2022/10/19 14:22:58;;;;;;;14.27;3.97;;;;;;;;;;5030004;28;20055;-66
2022/10/19 14:25:25;;;;;;;11.43;1.48;;;;;;;;;;5015561;28;20962;-66
2022/10/19 14:27:54;;;;;;;11.52;1.35;;;;;;;;;;5031952;28;20025;-65
2022/10/19 14:30:19;;;;;;;;;;;;;;;;;;5031489;28;20024;-66
2022/10/19 14:32:45;;;;;;;6.07;1.30;;;;;;;;;;5032568;28;19987;-65
2022/10/19 14:35:21;;;;;;;10.65;2.53;;;;;;;;;;5034371;28;20048;-66
2022/10/19 14:37:47;;;;;;;9.90;3.22;;;;;;;;;;5030567;28;20559;-64
2022/10/19 14:40:15;;;;;;;6.50;2.45;;;;;;;;;;5035123;28;20103;-66